sensor_id;sensor_type;location;lat;lon;timestamp;P1;durP1;ratioP1;P2;durP2;ratioP2
24521;SDS011;12680;57.804;12.190;2023-04-01T00:01:15;2.25;;;1.40;;
24521;SDS011;12680;57.804;12.190;2023-04-01T00:03:43;2.47;;;1.20;;
24521;SDS011;12680;57.804;12.190;2023-04-01T00:06:14;4.65;;;1.45;;
24521;SDS011;12680;57.804;12.190;2023-04-01T00:08:42;1.85;;;1.20;;
24521;SDS011;12680;57.804;12.190;2023-04-01T00:11:11;1.70;;;1.30;;
24521;SDS011;12680;57.804;12.190;2023-04-01T00:13:37;2.28;;;1.40;;
24521;SDS011;12680;57.804;12.190;2023-04-01T00:16:04;4.00;;;1.35;;
24521;SDS011;12680;57.804;12.190;2023-04-01T00:18:46;2.60;;;1.45;;
24521;SDS011;12680;57.804;12.190;2023-04-01T00:21:13;1.75;;;1.25;;
24521;SDS011;12680;57.804;12.190;2023-04-01T00:23:41;1.38;;;1.10;;
24521;SDS011;12680;57.804;12.190;2023-04-01T00:26:09;1.90;;;1.20;;
24521;SDS011;12680;57.804;12.190;2023-04-01T00:28:38;2.88;;;1.23;;
24521;SDS011;12680;57.804;12.190;2023-04-01T00:31:08;2.10;;;1.15;;
24521;SDS011;12680;57.804;12.190;2023-04-01T00:33:37;2.63;;;1.55;;
24521;SDS011;12680;57.804;12.190;2023-04-01T00:36:11;2.80;;;1.45;;
24521;SDS011;12680;57.804;12.190;2023-04-01T00:38:46;1.88;;;1.27;;
24521;SDS011;12680;57.804;12.190;2023-04-01T00:41:13;1.48;;;1.30;;
24521;SDS011;12680;57.804;12.190;2023-04-01T00:43:43;4.80;;;1.60;;
24521;SDS011;12680;57.804;12.190;2023-04-01T00:46:12;2.03;;;1.48;;
24521;SDS011;12680;57.804;12.190;2023-04-01T00:48:39;1.40;;;1.30;;
24521;SDS011;12680;57.804;12.190;2023-04-01T00:51:15;3.92;;;1.20;;
24521;SDS011;12680;57.804;12.190;2023-04-01T00:53:45;1.42;;;1.10;;
24521;SDS011;12680;57.804;12.190;2023-04-01T00:56:19;2.72;;;1.63;;
24521;SDS011;12680;57.804;12.190;2023-04-01T00:58:51;3.75;;;1.60;;
24521;SDS011;12680;57.804;12.190;2023-04-01T01:01:24;3.10;;;1.20;;
24521;SDS011;12680;57.804;12.190;2023-04-01T01:03:52;2.58;;;1.25;;
24521;SDS011;12680;57.804;12.190;2023-04-01T01:12:07;2.15;;;1.55;;
24521;SDS011;12680;57.804;12.190;2023-04-01T01:14:20;5.47;;;1.40;;
24521;SDS011;12680;57.804;12.190;2023-04-01T01:17:02;2.00;;;1.25;;
24521;SDS011;12680;57.804;12.190;2023-04-01T01:22:30;3.10;;;1.58;;
24521;SDS011;12680;57.804;12.190;2023-04-01T01:28:15;2.10;;;1.38;;
24521;SDS011;12680;57.804;12.190;2023-04-01T01:36:42;2.17;;;1.45;;
24521;SDS011;12680;57.804;12.190;2023-04-01T01:39:12;1.33;;;1.15;;
24521;SDS011;12680;57.804;12.190;2023-04-01T01:41:39;1.65;;;1.33;;
24521;SDS011;12680;57.804;12.190;2023-04-01T01:44:08;4.07;;;1.27;;
24521;SDS011;12680;57.804;12.190;2023-04-01T01:46:39;1.77;;;1.23;;
24521;SDS011;12680;57.804;12.190;2023-04-01T01:49:09;2.88;;;1.48;;
24521;SDS011;12680;57.804;12.190;2023-04-01T01:51:38;3.35;;;1.50;;
24521;SDS011;12680;57.804;12.190;2023-04-01T01:54:06;1.58;;;1.25;;
24521;SDS011;12680;57.804;12.190;2023-04-01T01:56:32;2.88;;;1.60;;
24521;SDS011;12680;57.804;12.190;2023-04-01T01:59:03;1.52;;;1.25;;
24521;SDS011;12680;57.804;12.190;2023-04-01T02:01:35;2.10;;;1.30;;
24521;SDS011;12680;57.804;12.190;2023-04-01T02:04:06;4.65;;;1.33;;
24521;SDS011;12680;57.804;12.190;2023-04-01T02:06:34;3.67;;;1.02;;
24521;SDS011;12680;57.804;12.190;2023-04-01T02:09:05;3.22;;;1.30;;
24521;SDS011;12680;57.804;12.190;2023-04-01T02:11:47;1.80;;;1.33;;
24521;SDS011;12680;57.804;12.190;2023-04-01T02:14:21;1.02;;;0.93;;
24521;SDS011;12680;57.804;12.190;2023-04-01T02:16:55;1.75;;;1.30;;
24521;SDS011;12680;57.804;12.190;2023-04-01T02:19:36;2.45;;;1.15;;
24521;SDS011;12680;57.804;12.190;2023-04-01T02:22:06;2.08;;;1.40;;
24521;SDS011;12680;57.804;12.190;2023-04-01T02:24:40;1.85;;;1.10;;
24521;SDS011;12680;57.804;12.190;2023-04-01T02:27:08;1.55;;;1.13;;
24521;SDS011;12680;57.804;12.190;2023-04-01T02:29:36;2.17;;;1.10;;
24521;SDS011;12680;57.804;12.190;2023-04-01T02:32:03;3.03;;;1.48;;
24521;SDS011;12680;57.804;12.190;2023-04-01T02:34:32;1.23;;;1.08;;
24521;SDS011;12680;57.804;12.190;2023-04-01T02:36:59;1.20;;;1.10;;
24521;SDS011;12680;57.804;12.190;2023-04-01T02:39:26;2.00;;;1.10;;
24521;SDS011;12680;57.804;12.190;2023-04-01T02:41:53;1.67;;;1.27;;
24521;SDS011;12680;57.804;12.190;2023-04-01T02:44:20;2.05;;;1.17;;
24521;SDS011;12680;57.804;12.190;2023-04-01T02:46:47;1.20;;;0.90;;
24521;SDS011;12680;57.804;12.190;2023-04-01T02:49:13;2.40;;;1.38;;
24521;SDS011;12680;57.804;12.190;2023-04-01T02:51:40;2.00;;;1.35;;
24521;SDS011;12680;57.804;12.190;2023-04-01T02:54:07;2.35;;;1.05;;
24521;SDS011;12680;57.804;12.190;2023-04-01T02:56:34;1.48;;;1.10;;
24521;SDS011;12680;57.804;12.190;2023-04-01T02:59:00;1.17;;;1.05;;
24521;SDS011;12680;57.804;12.190;2023-04-01T03:01:27;1.73;;;1.13;;
24521;SDS011;12680;57.804;12.190;2023-04-01T03:03:54;1.30;;;1.10;;
24521;SDS011;12680;57.804;12.190;2023-04-01T03:06:21;2.72;;;1.15;;
24521;SDS011;12680;57.804;12.190;2023-04-01T03:08:48;2.30;;;1.30;;
24521;SDS011;12680;57.804;12.190;2023-04-01T03:11:14;1.73;;;1.00;;
24521;SDS011;12680;57.804;12.190;2023-04-01T03:13:41;1.50;;;1.38;;
24521;SDS011;12680;57.804;12.190;2023-04-01T03:16:08;1.40;;;1.30;;
24521;SDS011;12680;57.804;12.190;2023-04-01T03:18:35;1.17;;;1.05;;
24521;SDS011;12680;57.804;12.190;2023-04-01T03:21:18;2.03;;;1.20;;
24521;SDS011;12680;57.804;12.190;2023-04-01T03:23:46;1.23;;;1.00;;
24521;SDS011;12680;57.804;12.190;2023-04-01T03:26:13;3.40;;;1.20;;
24521;SDS011;12680;57.804;12.190;2023-04-01T03:28:40;3.50;;;1.05;;
24521;SDS011;12680;57.804;12.190;2023-04-01T03:31:07;2.42;;;1.00;;
24521;SDS011;12680;57.804;12.190;2023-04-01T03:33:34;2.25;;;1.25;;
24521;SDS011;12680;57.804;12.190;2023-04-01T03:36:01;2.35;;;1.10;;
24521;SDS011;12680;57.804;12.190;2023-04-01T03:38:29;2.17;;;1.30;;
24521;SDS011;12680;57.804;12.190;2023-04-01T03:40:56;1.60;;;1.40;;
24521;SDS011;12680;57.804;12.190;2023-04-01T03:43:22;1.45;;;1.10;;
24521;SDS011;12680;57.804;12.190;2023-04-01T03:45:50;1.63;;;1.20;;
24521;SDS011;12680;57.804;12.190;2023-04-01T03:48:17;2.80;;;1.42;;
24521;SDS011;12680;57.804;12.190;2023-04-01T03:50:44;5.65;;;1.25;;
24521;SDS011;12680;57.804;12.190;2023-04-01T03:53:11;3.50;;;1.23;;
24521;SDS011;12680;57.804;12.190;2023-04-01T03:55:38;2.50;;;1.00;;
24521;SDS011;12680;57.804;12.190;2023-04-01T03:58:06;1.15;;;0.85;;
24521;SDS011;12680;57.804;12.190;2023-04-01T04:00:34;1.35;;;1.25;;
24521;SDS011;12680;57.804;12.190;2023-04-01T04:03:01;1.80;;;1.30;;
24521;SDS011;12680;57.804;12.190;2023-04-01T04:05:29;2.15;;;1.42;;
24521;SDS011;12680;57.804;12.190;2023-04-01T04:07:55;1.60;;;1.10;;
24521;SDS011;12680;57.804;12.190;2023-04-01T04:10:22;1.10;;;1.00;;
24521;SDS011;12680;57.804;12.190;2023-04-01T04:12:51;1.52;;;1.42;;
24521;SDS011;12680;57.804;12.190;2023-04-01T04:15:18;3.10;;;1.20;;
24521;SDS011;12680;57.804;12.190;2023-04-01T04:17:45;1.90;;;1.10;;
24521;SDS011;12680;57.804;12.190;2023-04-01T04:20:12;1.48;;;1.20;;
24521;SDS011;12680;57.804;12.190;2023-04-01T04:22:39;1.70;;;1.23;;
24521;SDS011;12680;57.804;12.190;2023-04-01T04:25:06;4.28;;;1.40;;
24521;SDS011;12680;57.804;12.190;2023-04-01T04:27:33;2.60;;;1.33;;
24521;SDS011;12680;57.804;12.190;2023-04-01T04:30:00;2.63;;;1.60;;
24521;SDS011;12680;57.804;12.190;2023-04-01T04:32:27;2.15;;;1.40;;
24521;SDS011;12680;57.804;12.190;2023-04-01T04:34:55;4.80;;;1.00;;
24521;SDS011;12680;57.804;12.190;2023-04-01T04:37:21;1.10;;;1.00;;
24521;SDS011;12680;57.804;12.190;2023-04-01T04:39:48;2.15;;;1.17;;
24521;SDS011;12680;57.804;12.190;2023-04-01T04:42:15;3.42;;;1.70;;
24521;SDS011;12680;57.804;12.190;2023-04-01T04:44:41;1.55;;;1.33;;
24521;SDS011;12680;57.804;12.190;2023-04-01T04:47:08;1.33;;;1.17;;
24521;SDS011;12680;57.804;12.190;2023-04-01T04:49:35;3.65;;;1.48;;
24521;SDS011;12680;57.804;12.190;2023-04-01T04:52:02;1.80;;;1.17;;
24521;SDS011;12680;57.804;12.190;2023-04-01T04:54:29;1.75;;;1.15;;
24521;SDS011;12680;57.804;12.190;2023-04-01T04:56:55;2.58;;;1.08;;
24521;SDS011;12680;57.804;12.190;2023-04-01T04:59:22;2.00;;;1.58;;
24521;SDS011;12680;57.804;12.190;2023-04-01T05:01:49;3.22;;;1.10;;
24521;SDS011;12680;57.804;12.190;2023-04-01T05:04:16;1.80;;;1.08;;
24521;SDS011;12680;57.804;12.190;2023-04-01T05:06:43;3.10;;;1.42;;
24521;SDS011;12680;57.804;12.190;2023-04-01T05:09:11;2.15;;;0.90;;
24521;SDS011;12680;57.804;12.190;2023-04-01T05:11:38;1.20;;;1.10;;
24521;SDS011;12680;57.804;12.190;2023-04-01T05:14:05;1.17;;;1.00;;
24521;SDS011;12680;57.804;12.190;2023-04-01T05:16:31;1.83;;;0.93;;
24521;SDS011;12680;57.804;12.190;2023-04-01T05:18:58;3.63;;;1.05;;
24521;SDS011;12680;57.804;12.190;2023-04-01T05:21:25;0.73;;;0.73;;
24521;SDS011;12680;57.804;12.190;2023-04-01T05:23:52;2.63;;;0.90;;
24521;SDS011;12680;57.804;12.190;2023-04-01T05:26:18;1.35;;;1.05;;
24521;SDS011;12680;57.804;12.190;2023-04-01T05:28:45;1.05;;;0.90;;
24521;SDS011;12680;57.804;12.190;2023-04-01T05:31:12;1.17;;;0.90;;
24521;SDS011;12680;57.804;12.190;2023-04-01T05:33:39;1.00;;;0.90;;
24521;SDS011;12680;57.804;12.190;2023-04-01T05:36:09;1.88;;;1.20;;
24521;SDS011;12680;57.804;12.190;2023-04-01T05:38:38;7.30;;;2.42;;
24521;SDS011;12680;57.804;12.190;2023-04-01T05:41:05;1.83;;;1.67;;
24521;SDS011;12680;57.804;12.190;2023-04-01T05:43:35;2.33;;;1.80;;
24521;SDS011;12680;57.804;12.190;2023-04-01T05:46:02;2.97;;;1.83;;
24521;SDS011;12680;57.804;12.190;2023-04-01T05:48:29;2.88;;;1.73;;
24521;SDS011;12680;57.804;12.190;2023-04-01T05:50:56;3.58;;;2.50;;
24521;SDS011;12680;57.804;12.190;2023-04-01T05:53:24;4.65;;;2.28;;
24521;SDS011;12680;57.804;12.190;2023-04-01T05:55:51;4.43;;;2.60;;
24521;SDS011;12680;57.804;12.190;2023-04-01T05:58:17;2.67;;;1.92;;
24521;SDS011;12680;57.804;12.190;2023-04-01T06:00:44;8.30;;;2.13;;
24521;SDS011;12680;57.804;12.190;2023-04-01T06:03:13;5.07;;;1.85;;
24521;SDS011;12680;57.804;12.190;2023-04-01T06:05:40;2.63;;;1.70;;
24521;SDS011;12680;57.804;12.190;2023-04-01T06:08:13;1.90;;;1.20;;
24521;SDS011;12680;57.804;12.190;2023-04-01T06:16:36;2.20;;;1.00;;
24521;SDS011;12680;57.804;12.190;2023-04-01T06:36:59;2.63;;;0.85;;
24521;SDS011;12680;57.804;12.190;2023-04-01T06:45:55;0.98;;;0.75;;
24521;SDS011;12680;57.804;12.190;2023-04-01T06:48:35;0.80;;;0.60;;
24521;SDS011;12680;57.804;12.190;2023-04-01T06:51:33;0.80;;;0.75;;
24521;SDS011;12680;57.804;12.190;2023-04-01T06:54:10;3.40;;;0.77;;
24521;SDS011;12680;57.804;12.190;2023-04-01T06:56:43;0.82;;;0.82;;
24521;SDS011;12680;57.804;12.190;2023-04-01T06:59:20;1.70;;;0.88;;
24521;SDS011;12680;57.804;12.190;2023-04-01T07:01:58;2.00;;;1.25;;
24521;SDS011;12680;57.804;12.190;2023-04-01T07:04:27;2.30;;;0.73;;
24521;SDS011;12680;57.804;12.190;2023-04-01T07:06:58;2.10;;;0.90;;
24521;SDS011;12680;57.804;12.190;2023-04-01T07:09:50;1.50;;;1.05;;
24521;SDS011;12680;57.804;12.190;2023-04-01T07:15:43;1.08;;;0.90;;
24521;SDS011;12680;57.804;12.190;2023-04-01T07:18:05;3.10;;;0.73;;
24521;SDS011;12680;57.804;12.190;2023-04-01T07:20:42;1.77;;;0.90;;
24521;SDS011;12680;57.804;12.190;2023-04-01T07:23:16;0.90;;;0.73;;
24521;SDS011;12680;57.804;12.190;2023-04-01T07:25:53;0.95;;;0.85;;
24521;SDS011;12680;57.804;12.190;2023-04-01T07:28:26;3.97;;;0.82;;
24521;SDS011;12680;57.804;12.190;2023-04-01T07:33:36;1.20;;;0.75;;
24521;SDS011;12680;57.804;12.190;2023-04-01T07:36:25;3.03;;;0.80;;
24521;SDS011;12680;57.804;12.190;2023-04-01T07:39:08;0.75;;;0.65;;
24521;SDS011;12680;57.804;12.190;2023-04-01T07:44:51;2.70;;;0.73;;
24521;SDS011;12680;57.804;12.190;2023-04-01T07:50:07;2.38;;;0.90;;
24521;SDS011;12680;57.804;12.190;2023-04-01T07:52:40;2.95;;;0.80;;
24521;SDS011;12680;57.804;12.190;2023-04-01T07:55:27;1.48;;;0.50;;
24521;SDS011;12680;57.804;12.190;2023-04-01T07:58:14;1.65;;;0.70;;
24521;SDS011;12680;57.804;12.190;2023-04-01T08:00:59;1.00;;;0.65;;
24521;SDS011;12680;57.804;12.190;2023-04-01T08:03:58;2.23;;;1.00;;
24521;SDS011;12680;57.804;12.190;2023-04-01T08:06:36;4.95;;;1.00;;
24521;SDS011;12680;57.804;12.190;2023-04-01T08:22:50;1.23;;;0.68;;
24521;SDS011;12680;57.804;12.190;2023-04-01T08:25:28;1.90;;;0.60;;
24521;SDS011;12680;57.804;12.190;2023-04-01T08:36:15;0.40;;;0.40;;
24521;SDS011;12680;57.804;12.190;2023-04-01T08:38:51;0.68;;;0.60;;
24521;SDS011;12680;57.804;12.190;2023-04-01T08:47:13;2.08;;;0.93;;
24521;SDS011;12680;57.804;12.190;2023-04-01T08:50:12;0.80;;;0.50;;
24521;SDS011;12680;57.804;12.190;2023-04-01T08:52:52;2.83;;;0.60;;
24521;SDS011;12680;57.804;12.190;2023-04-01T08:55:43;1.60;;;0.50;;
24521;SDS011;12680;57.804;12.190;2023-04-01T08:58:34;1.75;;;0.52;;
24521;SDS011;12680;57.804;12.190;2023-04-01T09:04:38;1.35;;;0.68;;
24521;SDS011;12680;57.804;12.190;2023-04-01T09:18:55;1.63;;;0.80;;
24521;SDS011;12680;57.804;12.190;2023-04-01T09:24:46;0.80;;;0.80;;
24521;SDS011;12680;57.804;12.190;2023-04-01T09:42:48;3.42;;;0.88;;
24521;SDS011;12680;57.804;12.190;2023-04-01T09:45:00;1.05;;;0.80;;
24521;SDS011;12680;57.804;12.190;2023-04-01T09:50:32;0.40;;;0.40;;
24521;SDS011;12680;57.804;12.190;2023-04-01T09:53:24;0.47;;;0.47;;
24521;SDS011;12680;57.804;12.190;2023-04-01T09:56:18;0.63;;;0.55;;
24521;SDS011;12680;57.804;12.190;2023-04-01T09:59:31;1.50;;;0.40;;
24521;SDS011;12680;57.804;12.190;2023-04-01T10:05:22;2.40;;;0.80;;
24521;SDS011;12680;57.804;12.190;2023-04-01T10:22:35;1.67;;;0.80;;
24521;SDS011;12680;57.804;12.190;2023-04-01T10:26:04;0.68;;;0.50;;
24521;SDS011;12680;57.804;12.190;2023-04-01T10:36:53;0.70;;;0.57;;
24521;SDS011;12680;57.804;12.190;2023-04-01T11:07:41;2.20;;;0.80;;
24521;SDS011;12680;57.804;12.190;2023-04-01T11:13:45;1.65;;;0.82;;
24521;SDS011;12680;57.804;12.190;2023-04-01T11:16:41;1.52;;;0.80;;
24521;SDS011;12680;57.804;12.190;2023-04-01T11:19:20;2.45;;;0.90;;
24521;SDS011;12680;57.804;12.190;2023-04-01T11:35:26;1.35;;;0.88;;
24521;SDS011;12680;57.804;12.190;2023-04-01T11:55:06;0.70;;;0.70;;
24521;SDS011;12680;57.804;12.190;2023-04-01T12:03:15;5.07;;;0.88;;
24521;SDS011;12680;57.804;12.190;2023-04-01T12:14:16;4.20;;;0.95;;
24521;SDS011;12680;57.804;12.190;2023-04-01T12:16:59;1.55;;;0.82;;
24521;SDS011;12680;57.804;12.190;2023-04-01T12:37:27;2.35;;;1.00;;
24521;SDS011;12680;57.804;12.190;2023-04-01T12:43:28;1.02;;;0.50;;
24521;SDS011;12680;57.804;12.190;2023-04-01T13:08:17;1.13;;;0.57;;
24521;SDS011;12680;57.804;12.190;2023-04-01T13:13:53;1.25;;;0.40;;
24521;SDS011;12680;57.804;12.190;2023-04-01T13:19:53;2.72;;;1.27;;
24521;SDS011;12680;57.804;12.190;2023-04-01T13:25:29;2.35;;;1.23;;
24521;SDS011;12680;57.804;12.190;2023-04-01T13:28:06;3.45;;;1.38;;
24521;SDS011;12680;57.804;12.190;2023-04-01T13:30:59;1.73;;;0.95;;
24521;SDS011;12680;57.804;12.190;2023-04-01T13:33:46;1.77;;;0.95;;
24521;SDS011;12680;57.804;12.190;2023-04-01T13:36:24;1.05;;;0.63;;
24521;SDS011;12680;57.804;12.190;2023-04-01T13:42:12;1.00;;;0.40;;
24521;SDS011;12680;57.804;12.190;2023-04-01T13:45:02;0.88;;;0.70;;
24521;SDS011;12680;57.804;12.190;2023-04-01T13:50:45;0.90;;;0.82;;
24521;SDS011;12680;57.804;12.190;2023-04-01T13:58:38;1.20;;;0.47;;
24521;SDS011;12680;57.804;12.190;2023-04-01T14:01:35;1.05;;;0.45;;
24521;SDS011;12680;57.804;12.190;2023-04-01T14:13:03;0.63;;;0.52;;
24521;SDS011;12680;57.804;12.190;2023-04-01T14:19:03;0.52;;;0.50;;
24521;SDS011;12680;57.804;12.190;2023-04-01T14:22:05;0.30;;;0.30;;
24521;SDS011;12680;57.804;12.190;2023-04-01T14:30:18;1.05;;;0.60;;
24521;SDS011;12680;57.804;12.190;2023-04-01T14:36:18;2.25;;;0.70;;
24521;SDS011;12680;57.804;12.190;2023-04-01T14:39:15;0.50;;;0.50;;
24521;SDS011;12680;57.804;12.190;2023-04-01T14:41:51;0.55;;;0.35;;
24521;SDS011;12680;57.804;12.190;2023-04-01T14:47:53;1.52;;;0.47;;
24521;SDS011;12680;57.804;12.190;2023-04-01T14:50:43;0.45;;;0.43;;
24521;SDS011;12680;57.804;12.190;2023-04-01T14:53:22;2.42;;;0.70;;
24521;SDS011;12680;57.804;12.190;2023-04-01T14:58:44;1.60;;;0.73;;
24521;SDS011;12680;57.804;12.190;2023-04-01T15:01:25;1.75;;;1.10;;
24521;SDS011;12680;57.804;12.190;2023-04-01T15:18:19;1.67;;;0.73;;
24521;SDS011;12680;57.804;12.190;2023-04-01T15:42:51;4.43;;;1.77;;
24521;SDS011;12680;57.804;12.190;2023-04-01T15:45:31;2.55;;;1.50;;
24521;SDS011;12680;57.804;12.190;2023-04-01T15:48:13;1.25;;;0.90;;
24521;SDS011;12680;57.804;12.190;2023-04-01T15:53:35;1.50;;;0.70;;
24521;SDS011;12680;57.804;12.190;2023-04-01T16:05:43;0.90;;;0.50;;
24521;SDS011;12680;57.804;12.190;2023-04-01T16:11:29;3.47;;;1.67;;
24521;SDS011;12680;57.804;12.190;2023-04-01T16:14:17;3.45;;;1.98;;
24521;SDS011;12680;57.804;12.190;2023-04-01T16:17:11;2.63;;;0.65;;
24521;SDS011;12680;57.804;12.190;2023-04-01T16:20:02;0.40;;;0.40;;
24521;SDS011;12680;57.804;12.190;2023-04-01T16:22:38;0.93;;;0.50;;
24521;SDS011;12680;57.804;12.190;2023-04-01T16:27:50;1.52;;;0.50;;
24521;SDS011;12680;57.804;12.190;2023-04-01T16:30:37;1.95;;;0.68;;
24521;SDS011;12680;57.804;12.190;2023-04-01T16:33:15;2.40;;;0.70;;
24521;SDS011;12680;57.804;12.190;2023-04-01T16:35:59;1.38;;;0.65;;
24521;SDS011;12680;57.804;12.190;2023-04-01T16:38:42;1.67;;;0.60;;
24521;SDS011;12680;57.804;12.190;2023-04-01T16:44:05;2.38;;;0.80;;
24521;SDS011;12680;57.804;12.190;2023-04-01T16:49:25;0.75;;;0.60;;
24521;SDS011;12680;57.804;12.190;2023-04-01T16:54:53;2.72;;;0.60;;
24521;SDS011;12680;57.804;12.190;2023-04-01T16:57:30;0.55;;;0.50;;
24521;SDS011;12680;57.804;12.190;2023-04-01T17:00:15;1.27;;;0.77;;
24521;SDS011;12680;57.804;12.190;2023-04-01T17:08:17;1.17;;;0.55;;
24521;SDS011;12680;57.804;12.190;2023-04-01T17:14:13;0.77;;;0.57;;
24521;SDS011;12680;57.804;12.190;2023-04-01T17:16:46;0.50;;;0.50;;
24521;SDS011;12680;57.804;12.190;2023-04-01T17:19:42;0.50;;;0.50;;
24521;SDS011;12680;57.804;12.190;2023-04-01T17:25:14;0.50;;;0.50;;
24521;SDS011;12680;57.804;12.190;2023-04-01T17:31:02;1.05;;;0.63;;
24521;SDS011;12680;57.804;12.190;2023-04-01T17:36:39;0.57;;;0.52;;
24521;SDS011;12680;57.804;12.190;2023-04-01T17:39:39;1.10;;;0.80;;
24521;SDS011;12680;57.804;12.190;2023-04-01T17:45:35;0.65;;;0.60;;
24521;SDS011;12680;57.804;12.190;2023-04-01T17:51:17;1.10;;;0.98;;
24521;SDS011;12680;57.804;12.190;2023-04-01T17:56:33;0.60;;;0.60;;
24521;SDS011;12680;57.804;12.190;2023-04-01T17:59:18;1.42;;;0.80;;
24521;SDS011;12680;57.804;12.190;2023-04-01T18:07:23;1.48;;;0.45;;
24521;SDS011;12680;57.804;12.190;2023-04-01T18:10:10;0.70;;;0.60;;
24521;SDS011;12680;57.804;12.190;2023-04-01T18:18:50;1.58;;;0.57;;
24521;SDS011;12680;57.804;12.190;2023-04-01T18:21:49;0.88;;;0.70;;
24521;SDS011;12680;57.804;12.190;2023-04-01T18:27:00;0.82;;;0.70;;
24521;SDS011;12680;57.804;12.190;2023-04-01T18:34:43;0.70;;;0.60;;
24521;SDS011;12680;57.804;12.190;2023-04-01T18:37:26;2.67;;;0.80;;
24521;SDS011;12680;57.804;12.190;2023-04-01T18:40:15;1.52;;;0.80;;
24521;SDS011;12680;57.804;12.190;2023-04-01T18:43:16;1.88;;;0.75;;
24521;SDS011;12680;57.804;12.190;2023-04-01T18:46:05;1.25;;;0.80;;
24521;SDS011;12680;57.804;12.190;2023-04-01T18:48:47;0.82;;;0.80;;
24521;SDS011;12680;57.804;12.190;2023-04-01T18:51:37;0.57;;;0.57;;
24521;SDS011;12680;57.804;12.190;2023-04-01T18:54:13;0.65;;;0.57;;
24521;SDS011;12680;57.804;12.190;2023-04-01T18:56:59;0.70;;;0.70;;
24521;SDS011;12680;57.804;12.190;2023-04-01T19:02:08;1.30;;;0.70;;
24521;SDS011;12680;57.804;12.190;2023-04-01T19:04:42;1.98;;;0.63;;
24521;SDS011;12680;57.804;12.190;2023-04-01T19:10:21;1.10;;;0.80;;
24521;SDS011;12680;57.804;12.190;2023-04-01T19:15:42;2.30;;;0.80;;
24521;SDS011;12680;57.804;12.190;2023-04-01T19:18:22;2.50;;;1.25;;
24521;SDS011;12680;57.804;12.190;2023-04-01T19:21:11;0.85;;;0.82;;
24521;SDS011;12680;57.804;12.190;2023-04-01T19:26:12;1.17;;;1.08;;
24521;SDS011;12680;57.804;12.190;2023-04-01T19:32:05;1.75;;;0.80;;
24521;SDS011;12680;57.804;12.190;2023-04-01T19:34:49;1.67;;;0.75;;
24521;SDS011;12680;57.804;12.190;2023-04-01T19:37:27;1.85;;;0.80;;
24521;SDS011;12680;57.804;12.190;2023-04-01T19:42:34;1.25;;;0.88;;
24521;SDS011;12680;57.804;12.190;2023-04-01T19:45:29;1.90;;;0.80;;
24521;SDS011;12680;57.804;12.190;2023-04-01T19:50:55;2.03;;;1.02;;
24521;SDS011;12680;57.804;12.190;2023-04-01T19:56:18;1.25;;;0.80;;
24521;SDS011;12680;57.804;12.190;2023-04-01T20:01:53;1.65;;;1.10;;
24521;SDS011;12680;57.804;12.190;2023-04-01T20:04:42;1.10;;;1.00;;
24521;SDS011;12680;57.804;12.190;2023-04-01T20:07:23;1.92;;;1.20;;
24521;SDS011;12680;57.804;12.190;2023-04-01T20:10:08;1.30;;;1.10;;
24521;SDS011;12680;57.804;12.190;2023-04-01T20:15:27;2.42;;;0.90;;
24521;SDS011;12680;57.804;12.190;2023-04-01T20:18:13;2.70;;;1.30;;
24521;SDS011;12680;57.804;12.190;2023-04-01T20:21:06;2.30;;;1.30;;
24521;SDS011;12680;57.804;12.190;2023-04-01T20:26:41;0.90;;;0.88;;
24521;SDS011;12680;57.804;12.190;2023-04-01T20:32:12;2.22;;;1.20;;
24521;SDS011;12680;57.804;12.190;2023-04-01T20:35:13;2.10;;;1.08;;
24521;SDS011;12680;57.804;12.190;2023-04-01T20:37:55;0.85;;;0.85;;
24521;SDS011;12680;57.804;12.190;2023-04-01T20:41:25;1.35;;;0.70;;
24521;SDS011;12680;57.804;12.190;2023-04-01T20:43:54;1.02;;;0.80;;
24521;SDS011;12680;57.804;12.190;2023-04-01T20:57:41;1.92;;;0.77;;
24521;SDS011;12680;57.804;12.190;2023-04-01T21:03:01;1.02;;;0.82;;
24521;SDS011;12680;57.804;12.190;2023-04-01T21:05:32;1.95;;;0.90;;
24521;SDS011;12680;57.804;12.190;2023-04-01T21:08:57;1.98;;;0.80;;
24521;SDS011;12680;57.804;12.190;2023-04-01T21:17:07;0.75;;;0.70;;
24521;SDS011;12680;57.804;12.190;2023-04-01T21:19:39;1.92;;;0.90;;
24521;SDS011;12680;57.804;12.190;2023-04-01T21:36:19;2.70;;;0.90;;
24521;SDS011;12680;57.804;12.190;2023-04-01T21:41:59;1.23;;;0.75;;
24521;SDS011;12680;57.804;12.190;2023-04-01T21:47:08;1.20;;;1.02;;
24521;SDS011;12680;57.804;12.190;2023-04-01T21:53:26;1.52;;;1.17;;
24521;SDS011;12680;57.804;12.190;2023-04-01T22:04:24;1.52;;;0.93;;
24521;SDS011;12680;57.804;12.190;2023-04-01T22:07:18;3.92;;;0.88;;
24521;SDS011;12680;57.804;12.190;2023-04-01T22:10:03;2.13;;;0.90;;
24521;SDS011;12680;57.804;12.190;2023-04-01T22:12:46;1.13;;;0.80;;
24521;SDS011;12680;57.804;12.190;2023-04-01T22:18:18;1.10;;;0.68;;
24521;SDS011;12680;57.804;12.190;2023-04-01T22:23:43;2.17;;;0.90;;
24521;SDS011;12680;57.804;12.190;2023-04-01T22:29:06;2.17;;;0.70;;
24521;SDS011;12680;57.804;12.190;2023-04-01T22:37:06;0.90;;;0.77;;
24521;SDS011;12680;57.804;12.190;2023-04-01T22:39:55;2.88;;;1.10;;
24521;SDS011;12680;57.804;12.190;2023-04-01T22:42:43;3.58;;;0.75;;
24521;SDS011;12680;57.804;12.190;2023-04-01T22:45:27;0.95;;;0.70;;
24521;SDS011;12680;57.804;12.190;2023-04-01T22:48:09;2.15;;;0.82;;
24521;SDS011;12680;57.804;12.190;2023-04-01T22:50:53;2.67;;;0.95;;
24521;SDS011;12680;57.804;12.190;2023-04-01T22:53:38;2.85;;;1.13;;
24521;SDS011;12680;57.804;12.190;2023-04-01T22:56:18;1.63;;;1.10;;
24521;SDS011;12680;57.804;12.190;2023-04-01T22:59:57;1.75;;;0.90;;
24521;SDS011;12680;57.804;12.190;2023-04-01T23:02:02;1.77;;;0.93;;
24521;SDS011;12680;57.804;12.190;2023-04-01T23:04:37;3.28;;;1.20;;
24521;SDS011;12680;57.804;12.190;2023-04-01T23:11:01;0.90;;;0.80;;
24521;SDS011;12680;57.804;12.190;2023-04-01T23:13:16;1.30;;;0.98;;
24521;SDS011;12680;57.804;12.190;2023-04-01T23:15:48;5.72;;;0.90;;
24521;SDS011;12680;57.804;12.190;2023-04-01T23:18:25;1.30;;;0.70;;
24521;SDS011;12680;57.804;12.190;2023-04-01T23:26:35;1.27;;;0.77;;
24521;SDS011;12680;57.804;12.190;2023-04-01T23:29:24;1.40;;;1.00;;
24521;SDS011;12680;57.804;12.190;2023-04-01T23:31:58;0.95;;;0.52;;
24521;SDS011;12680;57.804;12.190;2023-04-01T23:34:30;0.85;;;0.70;;
24521;SDS011;12680;57.804;12.190;2023-04-01T23:37:04;1.17;;;0.70;;
24521;SDS011;12680;57.804;12.190;2023-04-01T23:39:41;0.50;;;0.45;;
24521;SDS011;12680;57.804;12.190;2023-04-01T23:42:14;2.50;;;0.80;;
24521;SDS011;12680;57.804;12.190;2023-04-01T23:44:58;1.33;;;0.93;;
24521;SDS011;12680;57.804;12.190;2023-04-01T23:47:31;0.70;;;0.70;;
24521;SDS011;12680;57.804;12.190;2023-04-01T23:50:01;1.65;;;0.70;;
24521;SDS011;12680;57.804;12.190;2023-04-01T23:52:36;1.80;;;0.70;;
24521;SDS011;12680;57.804;12.190;2023-04-01T23:55:18;1.35;;;0.88;;
24521;SDS011;12680;57.804;12.190;2023-04-01T23:58:01;1.02;;;0.93;;
